Time;durP1;ratioP1;P1;durP2;ratioP2;P2;SDS_P1;SDS_P2;PMS_P1;PMS_P2;Temp;Humidity;BMP_temperature;BMP_pressure;BME280_temperature;BME280_humidity;BME280_pressure;Samples;Min_cycle;Max_cycle;Signal;HPM_P1;HPM_P2
2022/06/24 00:02:51;;;;;;;15.57;8.07;;;;;;;21.19;100.00;100484.41;5092145;28;20063;-75
2022/06/24 00:05:16;;;;;;;14.02;8.90;;;;;;;21.21;100.00;100463.19;5073762;28;20472;-76
2022/06/24 00:11:12;;;;;;;16.95;9.48;;;;;;;21.19;100.00;100497.22;5092227;28;20096;-76
2022/06/24 00:17:03;;;;;;;14.07;10.68;;;;;;;20.72;100.00;100594.81;5092209;28;20055;-74
2022/06/24 00:19:31;;;;;;;23.67;13.98;;;;;;;20.60;100.00;100596.31;5073536;28;20093;-74
2022/06/24 00:22:11;;;;;;;32.20;17.20;;;;;;;20.26;100.00;100607.97;5078062;28;20040;-81
2022/06/24 00:24:38;;;;;;;34.63;18.95;;;;;;;19.98;100.00;100606.03;5074484;28;20059;-79
2022/06/24 00:27:17;;;;;;;34.53;21.48;;;;;;;19.68;100.00;100639.59;5093151;28;20034;-79
2022/06/24 00:29:42;;;;;;;32.83;23.73;;;;;;;19.54;100.00;100647.50;5095632;28;20449;-79
2022/06/24 00:32:08;;;;;;;36.38;24.00;;;;;;;19.37;100.00;100653.25;5092321;28;20063;-80
2022/06/24 00:34:35;;;;;;;36.00;23.65;;;;;;;19.30;100.00;100647.28;5076917;28;20074;-78
2022/06/24 00:40:24;;;;;;;29.95;20.30;;;;;;;19.08;100.00;100669.34;5091867;28;20519;-79
2022/06/24 00:46:27;;;;;;;20.02;14.77;;;;;;;18.83;100.00;100697.28;5091971;28;20071;-79
2022/06/24 00:48:58;;;;;;;16.38;12.68;;;;;;;18.66;100.00;100685.91;5091621;28;20468;-78
2022/06/24 00:51:32;;;;;;;14.05;9.93;;;;;;;18.39;100.00;100671.78;5074562;28;20028;-80
2022/06/24 00:53:58;;;;;;;11.52;8.95;;;;;;;18.34;100.00;100660.97;5092550;28;20036;-80
2022/06/24 00:56:27;;;;;;;11.88;8.25;;;;;;;18.17;100.00;100632.25;5073553;28;20056;-79
2022/06/24 00:58:58;;;;;;;10.25;7.07;;;;;;;17.92;100.00;100637.63;5076474;28;20047;-79
2022/06/24 01:01:32;;;;;;;9.45;5.20;;;;;;;17.75;100.00;100654.09;5091370;28;20078;-79
2022/06/24 01:03:59;;;;;;;7.63;4.53;;;;;;;17.58;100.00;100654.25;5094358;28;20104;-80
2022/06/24 01:06:26;;;;;;;7.45;4.28;;;;;;;17.43;100.00;100651.50;5073203;28;20028;-80
2022/06/24 01:12:13;;;;;;;7.50;3.42;;;;;;;17.17;100.00;100618.16;5091878;28;20043;-81
2022/06/24 01:18:00;;;;;;;4.93;2.30;;;;;;;16.66;100.00;100609.75;5091489;28;20043;-81
2022/06/24 01:20:25;;;;;;;3.72;2.53;;;;;;;16.62;100.00;100603.22;5072958;28;20024;-81
2022/06/24 01:22:50;;;;;;;7.32;2.63;;;;;;;16.50;100.00;100585.59;5097752;28;20492;-80
2022/06/24 01:25:16;;;;;;;4.53;2.30;;;;;;;16.41;100.00;100582.53;5076627;28;20024;-80
2022/06/24 01:27:41;;;;;;;3.10;2.50;;;;;;;16.35;100.00;100573.59;5094558;28;20051;-79
2022/06/24 01:30:09;;;;;;;4.43;2.05;;;;;;;16.36;100.00;100572.53;5097165;28;20279;-80
2022/06/24 01:32:34;;;;;;;2.85;2.22;;;;;;;16.45;100.00;100588.22;5094366;28;20053;-80
2022/06/24 01:35:00;;;;;;;4.22;2.13;;;;;;;16.26;100.00;100577.84;5079530;28;20048;-80
2022/06/24 01:37:25;;;;;;;4.38;1.83;;;;;;;16.29;100.00;100577.34;5076097;28;20123;-80
2022/06/24 01:39:51;;;;;;;2.23;1.90;;;;;;;16.33;100.00;100591.94;5094517;28;20085;-79
2022/06/24 01:42:16;;;;;;;2.88;2.05;;;;;;;16.34;100.00;100582.78;5079223;28;20297;-78
2022/06/24 01:48:04;;;;;;;2.13;1.75;;;;;;;16.43;100.00;100570.41;5094327;28;20446;-79
2022/06/24 01:53:51;;;;;;;3.55;1.83;;;;;;;16.30;100.00;100543.88;5094225;28;20063;-79
2022/06/24 01:56:17;;;;;;;2.28;1.73;;;;;;;16.34;100.00;100553.09;5075659;28;20460;-79
2022/06/24 01:58:43;;;;;;;3.60;2.13;;;;;;;16.24;100.00;100539.53;5096844;28;20047;-80
2022/06/24 02:04:31;;;;;;;3.55;1.80;;;;;;;16.19;100.00;100550.28;5094070;28;20067;-79
2022/06/24 02:15:49;;;;;;;2.28;2.00;;;;;;;16.16;100.00;100541.88;5094942;28;20092;-78
2022/06/24 02:18:15;;;;;;;3.53;1.90;;;;;;;16.25;100.00;100545.75;5079883;28;20055;-78
2022/06/24 02:20:41;;;;;;;2.88;2.10;;;;;;;16.37;100.00;100543.66;5095265;28;20059;-78
2022/06/24 02:23:08;;;;;;;3.13;2.00;;;;;;;16.38;100.00;100540.69;5076989;28;20047;-77
2022/06/24 02:28:57;;;;;;;5.50;2.60;;;;;;;16.38;100.00;100545.28;5094939;28;20170;-78
2022/06/24 02:31:22;;;;;;;2.40;2.20;;;;;;;16.33;100.00;100551.47;5079887;28;20448;-78
2022/06/24 02:33:47;;;;;;;3.72;2.22;;;;;;;16.25;100.00;100551.13;5093856;28;20059;-78
2022/06/24 02:36:13;;;;;;;3.05;2.60;;;;;;;16.38;100.00;100550.69;5096174;28;20271;-78
2022/06/24 02:38:39;;;;;;;7.28;2.63;;;;;;;16.49;100.00;100547.00;5093064;28;20028;-78
2022/06/24 02:44:25;;;;;;;3.97;2.70;;;;;;;16.71;100.00;100536.06;5092986;28;20303;-78
2022/06/24 02:46:50;;;;;;;4.47;2.70;;;;;;;16.71;100.00;100526.06;5074929;28;20028;-79
2022/06/24 02:49:16;;;;;;;4.10;2.92;;;;;;;16.78;100.00;100525.88;5078416;28;20079;-80
2022/06/24 02:51:41;;;;;;;6.50;3.20;;;;;;;16.73;100.00;100517.72;5092926;28;20449;-80
2022/06/24 02:54:06;;;;;;;3.92;2.63;;;;;;;16.80;100.00;100536.41;5074819;28;20290;-79
2022/06/24 02:56:31;;;;;;;5.13;3.20;;;;;;;16.82;100.00;100510.75;5077975;28;20488;-80
2022/06/24 02:58:57;;;;;;;3.90;3.07;;;;;;;16.90;100.00;100523.75;5074751;28;20338;-80
2022/06/24 03:01:22;;;;;;;6.18;3.90;;;;;;;16.90;100.00;100526.44;5095633;28;20285;-80
2022/06/24 03:03:47;;;;;;;7.23;4.20;;;;;;;16.88;100.00;100514.28;5092876;28;20040;-80
2022/06/24 03:06:13;;;;;;;5.53;3.90;;;;;;;16.90;100.00;100507.53;5092893;28;20682;-80
2022/06/24 03:08:39;;;;;;;6.00;4.10;;;;;;;16.92;100.00;100512.69;5077974;28;20689;-81
2022/06/24 03:14:26;;;;;;;6.05;3.88;;;;;;;16.79;100.00;100497.78;5092881;28;20089;-81
2022/06/24 03:16:52;;;;;;;4.78;3.92;;;;;;;16.85;100.00;100496.72;5074445;28;20070;-79
2022/06/24 03:22:39;;;;;;;7.30;4.15;;;;;;;16.86;100.00;100479.44;5092550;28;20317;-80
2022/06/24 03:25:05;;;;;;;7.63;4.28;;;;;;;16.86;100.00;100471.34;5092461;28;20056;-80
2022/06/24 03:27:31;;;;;;;6.43;4.10;;;;;;;16.78;100.00;100471.84;5095432;28;20044;-80
2022/06/24 03:33:19;;;;;;;5.95;4.18;;;;;;;16.80;100.00;100471.59;5092860;28;20043;-80
2022/06/24 03:35:44;;;;;;;6.40;4.47;;;;;;;16.67;100.00;100467.47;5074419;28;20036;-79
2022/06/24 03:41:33;;;;;;;5.55;4.80;;;;;;;16.60;100.00;100464.16;5092194;28;20292;-80
2022/06/24 03:47:20;;;;;;;6.20;4.70;;;;;;;16.63;100.00;100469.03;5092353;28;20042;-79
2022/06/24 03:53:07;;;;;;;7.30;4.93;;;;;;;16.79;100.00;100468.06;5092311;28;20050;-80
2022/06/24 03:55:32;;;;;;;5.93;5.10;;;;;;;16.74;100.00;100465.31;5092249;28;20111;-80
2022/06/24 03:57:57;;;;;;;6.22;5.15;;;;;;;16.75;100.00;100475.06;5095105;28;20040;-79
2022/06/24 04:00:23;;;;;;;5.70;5.10;;;;;;;16.70;100.00;100481.25;5073787;28;20028;-79
2022/06/24 04:02:49;;;;;;;9.25;5.68;;;;;;;16.72;100.00;100480.97;5076910;28;20043;-79
2022/06/24 04:05:14;;;;;;;8.52;5.40;;;;;;;16.76;100.00;100500.16;5073816;28;20066;-80
2022/06/24 04:07:40;;;;;;;6.68;5.65;;;;;;;16.80;100.00;100501.28;5073705;28;20039;-79
2022/06/24 04:10:06;;;;;;;8.65;5.53;;;;;;;16.69;100.00;100489.63;5094974;28;20400;-80
2022/06/24 04:12:31;;;;;;;7.13;5.05;;;;;;;16.68;100.00;100498.78;5091772;28;20032;-79
2022/06/24 04:15:15;;;;;;;7.60;5.45;;;;;;;16.68;100.00;100506.88;5076713;28;20044;-80
2022/06/24 04:17:42;;;;;;;7.78;5.60;;;;;;;16.72;100.00;100518.78;5073556;28;20032;-80
2022/06/24 04:23:29;;;;;;;7.57;5.97;;;;;;;16.69;100.00;100524.72;5091941;28;20047;-79
2022/06/24 04:25:54;;;;;;;8.38;6.47;;;;;;;16.70;100.00;100526.34;5073543;28;20380;-80
2022/06/24 04:28:20;;;;;;;9.55;6.38;;;;;;;16.75;100.00;100526.34;5094817;28;20063;-80
2022/06/24 04:30:45;;;;;;;9.00;7.50;;;;;;;16.83;100.00;100536.69;5091712;28;20039;-80
2022/06/24 04:33:11;;;;;;;9.73;6.53;;;;;;;16.89;100.00;100530.22;5076786;28;20040;-79
2022/06/24 04:38:58;;;;;;;8.30;6.72;;;;;;;17.04;100.00;100514.06;5091570;28;20047;-78
2022/06/24 04:41:23;;;;;;;10.60;6.85;;;;;;;17.10;100.00;100519.50;5091437;28;20028;-77
2022/06/24 04:43:48;;;;;;;9.50;7.30;;;;;;;17.13;100.00;100527.06;5091460;28;20032;-77
2022/06/24 04:49:37;;;;;;;9.48;7.13;;;;;;;17.27;100.00;100531.69;5091844;28;20043;-77
2022/06/24 04:52:03;;;;;;;10.88;7.35;;;;;;;17.22;100.00;100506.56;5076464;28;20043;-77
2022/06/24 04:54:28;;;;;;;10.20;7.82;;;;;;;17.30;100.00;100514.94;5073045;28;20123;-79
2022/06/24 04:56:54;;;;;;;10.70;7.97;;;;;;;17.26;100.00;100508.47;5078452;28;20043;-79
2022/06/24 04:59:19;;;;;;;10.98;7.25;;;;;;;17.32;100.00;100514.69;5094936;28;20025;-80
2022/06/24 05:01:44;;;;;;;9.47;7.93;;;;;;;17.33;100.00;100513.59;5076796;28;20060;-78
2022/06/24 05:07:31;;;;;;;10.45;8.50;;;;;;;17.38;100.00;100526.34;5094889;28;20050;-78
2022/06/24 05:09:57;;;;;;;10.23;8.30;;;;;;;17.38;100.00;100524.47;5098085;28;20040;-78
2022/06/24 05:15:44;;;;;;;10.15;8.95;;;;;;;17.38;100.00;100520.94;5094872;28;20065;-78
2022/06/24 05:18:09;;;;;;;13.43;9.23;;;;;;;17.39;100.00;100523.38;5076489;28;20028;-80
2022/06/24 05:23:56;;;;;;;11.68;9.63;;;;;;;17.36;100.00;100521.22;5094504;28;20362;-78
2022/06/24 05:26:22;;;;;;;18.23;9.82;;;;;;;17.31;100.00;100516.56;5079593;28;20064;-78
2022/06/24 05:28:47;;;;;;;12.10;10.30;;;;;;;17.38;100.00;100520.94;5076027;28;20494;-78
2022/06/24 05:31:12;;;;;;;12.07;9.55;;;;;;;17.50;100.00;100524.19;5094405;28;20103;-78
2022/06/24 05:40:28;;;;;;;13.20;9.55;;;;;;;17.47;100.00;100543.66;5094551;28;20046;-78
2022/06/24 05:42:54;;;;;;;12.40;10.18;;;;;;;17.48;100.00;100535.28;5076144;28;20028;-77
2022/06/24 05:48:41;;;;;;;13.50;10.27;;;;;;;17.46;100.00;100515.81;5094089;28;20161;-81
2022/06/24 06:00:36;;;;;;;16.77;12.60;;;;;;;17.46;100.00;100523.91;5094322;28;20035;-79
2022/06/24 06:06:24;;;;;;;16.98;13.38;;;;;;;17.71;100.00;100535.91;5096215;28;20046;-79
2022/06/24 06:12:11;;;;;;;17.30;13.88;;;;;;;17.84;100.00;100544.28;5093798;28;20085;-75
2022/06/24 06:18:01;;;;;;;18.52;13.43;;;;;;;17.58;100.00;100543.41;5093731;28;20399;-73
2022/06/24 06:23:49;;;;;;;19.63;14.13;;;;;;;17.56;100.00;100534.75;5093774;28;20078;-74
2022/06/24 06:26:14;;;;;;;21.25;16.08;;;;;;;17.53;100.00;100538.00;5096322;28;20044;-74
2022/06/24 06:32:01;;;;;;;22.23;17.58;;;;;;;17.67;100.00;100546.44;5093510;28;20055;-74
2022/06/24 06:37:48;;;;;;;25.15;17.90;;;;;;;17.77;100.00;100537.53;5093718;28;20047;-73
2022/06/24 06:43:35;;;;;;;26.65;19.52;;;;;;;17.71;100.00;100546.72;5093296;28;20514;-73
2022/06/24 06:46:00;;;;;;;27.13;19.90;;;;;;;17.67;100.00;100551.84;5093052;28;20099;-73
2022/06/24 06:51:47;;;;;;;23.63;17.98;;;;;;;17.64;100.00;100550.47;5093194;28;20113;-73
2022/06/24 06:54:13;;;;;;;29.87;20.93;;;;;;;17.70;100.00;100550.50;5095885;28;20068;-74
2022/06/24 06:56:38;;;;;;;26.85;19.95;;;;;;;17.65;100.00;100549.38;5092797;28;20278;-74
2022/06/24 06:59:04;;;;;;;31.17;21.45;;;;;;;17.63;100.00;100548.00;5095692;28;20051;-74
2022/06/24 07:01:29;;;;;;;31.25;21.63;;;;;;;17.55;100.00;100529.59;5074555;28;20040;-73
2022/06/24 07:03:54;;;;;;;37.60;22.37;;;;;;;17.50;100.00;100535.81;5092696;28;20399;-74
2022/06/24 07:09:41;;;;;;;26.65;19.65;;;;;;;17.66;100.00;100536.69;5092923;28;20035;-73
2022/06/24 07:12:07;;;;;;;30.85;20.20;;;;;;;17.61;100.00;100536.63;5077907;28;20036;-74
2022/06/24 07:14:32;;;;;;;37.25;21.75;;;;;;;17.54;100.00;100534.22;5074378;28;20035;-73
2022/06/24 07:16:57;;;;;;;38.15;23.75;;;;;;;17.58;100.00;100535.28;5077674;28;20468;-74
2022/06/24 07:22:44;;;;;;;37.03;24.23;;;;;;;17.70;100.00;100523.47;5093033;28;20035;-74
2022/06/24 07:28:33;;;;;;;37.08;24.60;;;;;;;17.88;100.00;100514.78;5092449;28;20273;-75
2022/06/24 07:30:59;;;;;;;41.80;26.35;;;;;;;18.00;100.00;100511.84;5074252;28;20164;-75
2022/06/24 07:33:24;;;;;;;40.60;25.23;;;;;;;18.10;100.00;100511.81;5095132;28;20055;-75
2022/06/24 07:39:11;;;;;;;40.72;27.35;;;;;;;18.10;100.00;100515.34;5092469;28;20043;-76
2022/06/24 07:41:36;;;;;;;38.57;26.43;;;;;;;18.07;100.00;100525.91;5074198;28;20024;-76
2022/06/24 07:47:23;;;;;;;37.90;25.38;;;;;;;18.15;100.00;100547.81;5092391;28;20119;-74
2022/06/24 07:49:48;;;;;;;39.42;25.90;;;;;;;18.08;100.00;100554.56;5092062;28;20123;-74
2022/06/24 07:58:19;;;;;;;43.50;29.20;;;;;;;17.95;100.00;100553.22;5095321;28;20047;-73
2022/06/24 08:00:46;;;;;;;46.10;28.63;;;;;;;18.01;100.00;100549.44;5073592;28;20471;-74
2022/06/24 08:03:11;;;;;;;45.42;29.45;;;;;;;18.07;100.00;100555.66;5077085;28;20051;-74
2022/06/24 08:05:37;;;;;;;49.53;29.92;;;;;;;18.08;100.00;100544.56;5073606;28;20028;-74
2022/06/24 08:08:02;;;;;;;50.45;31.48;;;;;;;18.09;100.00;100546.19;5094812;28;20043;-74
2022/06/24 08:10:28;;;;;;;53.67;30.63;;;;;;;18.16;100.00;100556.72;5073538;28;20038;-74
2022/06/24 08:12:54;;;;;;;57.95;33.95;;;;;;;18.12;100.00;100545.66;5091764;28;20570;-74
2022/06/24 08:15:19;;;;;;;61.17;38.17;;;;;;;18.00;100.00;100550.53;5076889;28;20051;-74
2022/06/24 08:17:44;;;;;;;61.50;38.20;;;;;;;17.92;100.00;100553.75;5091834;28;20032;-76
2022/06/24 08:20:10;;;;;;;50.95;33.95;;;;;;;17.88;100.00;100552.66;5076962;28;20121;-74
2022/06/24 08:22:35;;;;;;;54.78;34.28;;;;;;;17.83;100.00;100556.19;5073496;28;20098;-75
2022/06/24 08:25:01;;;;;;;50.08;33.00;;;;;;;17.93;100.00;100550.00;5092278;28;20111;-75
2022/06/24 08:27:27;;;;;;;46.17;31.08;;;;;;;17.94;100.00;100551.63;5094014;28;20036;-75
2022/06/24 08:29:52;;;;;;;46.33;32.38;;;;;;;17.95;100.00;100545.94;5073410;28;20032;-75
2022/06/24 08:32:18;;;;;;;53.35;34.20;;;;;;;18.14;100.00;100551.59;5079706;28;20040;-75
2022/06/24 08:34:43;;;;;;;50.60;33.90;;;;;;;18.32;100.00;100544.00;5095039;28;20031;-74
2022/06/24 08:37:08;;;;;;;48.50;34.20;;;;;;;18.45;100.00;100538.03;5080185;28;20599;-75
2022/06/24 08:39:34;;;;;;;48.63;35.28;;;;;;;18.84;100.00;100546.38;5076848;28;20289;-75
2022/06/24 08:42:02;;;;;;;49.78;34.97;;;;;;;19.10;100.00;100541.66;5076928;28;20028;-75
2022/06/24 08:44:27;;;;;;;42.80;34.83;;;;;;;19.15;100.00;100536.22;5098030;28;20081;-75
2022/06/24 08:46:53;;;;;;;40.65;30.70;;;;;;;19.26;100.00;100543.22;5094966;28;20539;-75
2022/06/24 08:49:19;;;;;;;28.27;23.73;;;;;;;19.30;100.00;100552.41;5098267;28;20044;-75
2022/06/24 08:51:47;;;;;;;27.70;21.67;;;;;;;19.16;100.00;100559.53;5094914;28;20024;-75
2022/06/24 08:54:16;;;;;;;22.67;19.30;;;;;;;18.99;100.00;100549.00;5079334;28;20036;-75
2022/06/24 08:56:41;;;;;;;19.30;17.17;;;;;;;18.93;100.00;100550.13;5076700;28;20487;-75
2022/06/24 09:02:28;;;;;;;19.38;14.95;;;;;;;19.23;100.00;100534.81;5094972;28;20093;-76
2022/06/24 09:04:59;;;;;;;17.40;15.03;;;;;;;19.18;100.00;100544.59;5076557;28;20031;-75
2022/06/24 09:07:25;;;;;;;18.60;15.50;;;;;;;19.51;100.00;100547.69;5079796;28;20846;-75
2022/06/24 09:10:03;;;;;;;19.63;16.67;;;;;;;19.82;100.00;100550.22;5094505;28;20506;-74
2022/06/24 09:12:48;;;;;;;19.00;16.00;;;;;;;20.01;100.00;100546.56;5079740;28;20050;-76
2022/06/24 09:15:15;;;;;;;19.85;16.23;;;;;;;19.92;100.00;100545.53;5076062;28;20032;-77
2022/06/24 09:17:41;;;;;;;21.10;17.17;;;;;;;19.87;100.00;100550.19;5097700;28;20051;-76
2022/06/24 09:20:13;;;;;;;20.45;17.08;;;;;;;19.92;100.00;100548.22;5094527;28;20081;-75
2022/06/24 09:26:00;;;;;;;21.30;18.42;;;;;;;20.72;100.00;100550.50;5094466;28;20168;-75
2022/06/24 09:28:30;;;;;;;19.00;17.00;;;;;;;22.01;100.00;100545.81;5076501;28;20034;-76
2022/06/24 09:31:14;;;;;;;20.73;16.50;;;;;;;22.89;100.00;100550.25;5097700;28;20047;-77
2022/06/24 09:37:01;;;;;;;17.73;14.98;;;;;;;24.79;97.27;100538.09;5094950;28;20101;-77
2022/06/24 09:39:26;;;;;;;13.13;11.73;;;;;;;25.42;90.85;100545.00;5094428;28;20032;-77
2022/06/24 09:41:54;;;;;;;14.33;11.97;;;;;;;25.61;87.69;100545.50;5096988;28;20036;-77
2022/06/24 09:44:20;;;;;;;14.82;12.77;;;;;;;25.28;89.34;100547.91;5059555;28;20032;-77
2022/06/24 09:46:46;;;;;;;15.07;13.18;;;;;;;25.44;89.16;100531.81;5079217;28;20059;-77
2022/06/24 09:49:17;;;;;;;13.98;12.52;;;;;;;26.18;91.46;100547.25;5076228;28;20024;-77
2022/06/24 09:51:45;;;;;;;14.20;12.80;;;;;;;26.60;84.80;100552.97;5076047;28;20035;-76
2022/06/24 09:54:17;;;;;;;15.07;13.48;;;;;;;26.81;79.49;100542.88;5097406;28;20056;-77
2022/06/24 09:56:45;;;;;;;14.80;13.20;;;;;;;25.74;82.72;100537.50;5075891;28;20028;-76
2022/06/24 10:01:59;;;;;;;15.90;14.30;;;;;;;24.23;97.50;100542.28;5079238;28;20074;-78
2022/06/24 10:04:26;;;;;;;15.77;14.13;;;;;;;24.00;95.46;100537.97;5096922;28;20040;-80
2022/06/24 10:06:55;;;;;;;15.30;13.75;;;;;;;23.88;99.21;100540.44;5075668;28;20021;-78
2022/06/24 10:09:26;;;;;;;15.95;14.25;;;;;;;23.83;97.96;100537.84;5094170;28;20032;-78
2022/06/24 10:11:53;;;;;;;16.33;13.93;;;;;;;23.34;96.03;100542.22;5096153;28;20399;-78
2022/06/24 10:14:20;;;;;;;15.82;14.32;;;;;;;22.78;100.00;100535.16;5093973;28;20028;-78
2022/06/24 10:16:48;;;;;;;15.88;12.98;;;;;;;22.46;100.00;100533.31;5096977;28;20043;-78
2022/06/24 10:19:15;;;;;;;12.50;11.30;;;;;;;22.45;100.00;100542.59;5093616;28;20455;-78
2022/06/24 10:21:40;;;;;;;11.75;10.57;;;;;;;22.50;100.00;100537.06;5097244;28;20052;-76
2022/06/24 10:24:14;;;;;;;14.52;12.32;;;;;;;22.88;100.00;100550.56;5075576;28;20484;-78
2022/06/24 10:26:42;;;;;;;14.15;12.68;;;;;;;23.06;100.00;100550.44;5075645;28;20498;-77
2022/06/24 10:29:10;;;;;;;14.55;13.05;;;;;;;22.86;97.31;100568.03;5096455;28;20040;-80
2022/06/24 10:31:41;;;;;;;9.30;8.30;;;;;;;21.55;98.19;100577.25;5076053;28;20032;-77
2022/06/24 10:34:07;;;;;;;6.83;4.63;;;;;;;20.60;100.00;100572.66;5096522;28;20492;-76
2022/06/24 10:36:32;;;;;;;6.97;5.65;;;;;;;20.09;100.00;100586.66;5075990;28;20038;-77
2022/06/24 10:39:18;;;;;;;14.98;5.50;;;;;;;19.16;100.00;100605.63;5097334;28;20541;-75
2022/06/24 10:41:44;;;;;;;10.05;6.60;;;;;;;18.21;100.00;100600.88;5075393;28;20491;-75
2022/06/24 10:44:18;;;;;;;9.48;6.30;;;;;;;17.90;100.00;100591.09;5076649;28;20036;-75
2022/06/24 10:46:44;;;;;;;11.07;6.43;;;;;;;17.75;100.00;100589.19;5093617;28;20052;-74
2022/06/24 10:49:09;;;;;;;9.88;5.72;;;;;;;17.73;100.00;100596.75;5075223;28;20032;-74
2022/06/24 10:51:34;;;;;;;7.32;5.63;;;;;;;17.44;100.00;100596.38;5096369;28;20035;-74
2022/06/24 10:54:03;;;;;;;6.32;4.60;;;;;;;17.45;100.00;100584.47;5073802;28;20048;-74
2022/06/24 10:56:47;;;;;;;7.00;5.10;;;;;;;17.60;100.00;100581.81;5078214;28;20044;-74
2022/06/24 11:02:35;;;;;;;6.57;4.70;;;;;;;17.48;100.00;100596.66;5093164;28;20075;-72
2022/06/24 11:08:23;;;;;;;7.03;5.68;;;;;;;17.34;100.00;100580.09;5093122;28;20039;-74
2022/06/24 11:14:26;;;;;;;9.45;7.43;;;;;;;17.71;100.00;100562.94;5092783;28;20437;-73
2022/06/24 11:20:17;;;;;;;9.77;6.25;;;;;;;17.60;100.00;100565.56;5092900;28;20511;-74
2022/06/24 11:29:25;;;;;;;8.40;5.57;;;;;;;17.64;100.00;100544.25;5092749;28;20043;-73
2022/06/24 11:31:50;;;;;;;4.85;4.35;;;;;;;17.99;100.00;100559.72;5077526;28;20040;-73
2022/06/24 11:37:38;;;;;;;5.45;4.60;;;;;;;18.99;100.00;100548.19;5092525;28;20281;-75
2022/06/24 11:47:25;;;;;;;4.20;3.80;;;;;;;18.62;100.00;100552.13;5092913;28;20093;-74
2022/06/24 11:49:50;;;;;;;6.90;4.03;;;;;;;18.73;100.00;100542.88;5095589;28;20059;-74
2022/06/24 11:55:40;;;;;;;4.57;3.90;;;;;;;18.50;100.00;100556.97;5092652;28;20051;-74
2022/06/24 12:01:28;;;;;;;4.70;3.50;;;;;;;18.44;100.00;100549.94;5092746;28;20156;-73
2022/06/24 12:03:57;;;;;;;5.57;4.22;;;;;;;18.51;100.00;100558.63;5074346;28;20445;-74
2022/06/24 12:06:23;;;;;;;6.43;3.80;;;;;;;18.69;100.00;100552.63;5095110;28;20112;-74
2022/06/24 12:08:49;;;;;;;5.00;3.35;;;;;;;18.85;100.00;100556.94;5074213;28;20028;-74
2022/06/24 12:11:19;;;;;;;4.28;3.80;;;;;;;19.04;100.00;100548.19;5092652;28;20036;-76
2022/06/24 12:17:09;;;;;;;4.88;2.80;;;;;;;19.60;100.00;100546.03;5092298;28;20047;-74
2022/06/24 12:23:16;;;;;;;3.63;2.78;;;;;;;21.21;100.00;100533.88;5091989;28;20563;-75
2022/06/24 12:29:05;;;;;;;4.00;3.28;;;;;;;22.39;100.00;100552.81;5092289;28;20535;-75
2022/06/24 12:34:55;;;;;;;3.88;2.72;;;;;;;21.81;100.00;100544.22;5092298;28;20089;-75
2022/06/24 12:40:43;;;;;;;3.20;2.17;;;;;;;22.58;100.00;100539.09;5091948;28;20055;-76
2022/06/24 12:43:11;;;;;;;2.58;2.35;;;;;;;24.06;93.51;100539.47;5094697;28;20508;-75
2022/06/24 12:55:07;;;;;;;3.55;2.80;;;;;;;22.07;94.59;100542.72;5091365;28;20081;-74
2022/06/24 13:00:55;;;;;;;3.45;2.72;;;;;;;21.11;100.00;100550.34;5092007;28;20078;-74
2022/06/24 13:03:20;;;;;;;3.92;2.78;;;;;;;21.01;100.00;100547.72;5072841;28;20024;-73
2022/06/24 13:05:47;;;;;;;4.53;3.30;;;;;;;21.35;100.00;100539.44;5094187;28;20110;-73
2022/06/24 13:08:12;;;;;;;4.18;2.67;;;;;;;21.78;100.00;100551.06;5073107;28;20028;-73
2022/06/24 13:14:01;;;;;;;6.28;3.58;;;;;;;22.42;99.80;100551.38;5091565;28;20109;-73
2022/06/24 13:16:27;;;;;;;3.22;2.70;;;;;;;23.02;95.86;100556.81;5094162;28;20050;-73
2022/06/24 13:22:14;;;;;;;3.95;3.03;;;;;;;23.17;85.59;100556.50;5094780;28;20047;-73
2022/06/24 13:24:39;;;;;;;5.35;3.00;;;;;;;22.69;95.37;100564.25;5094329;28;20024;-73
2022/06/24 13:27:05;;;;;;;3.03;2.70;;;;;;;22.69;94.61;100562.34;5076088;28;20369;-73
2022/06/24 13:29:31;;;;;;;4.28;3.20;;;;;;;23.03;93.11;100567.41;5079460;28;20044;-73
2022/06/24 13:31:57;;;;;;;3.88;2.97;;;;;;;23.26;91.77;100565.56;5076197;28;20111;-73
2022/06/24 13:34:22;;;;;;;4.90;3.20;;;;;;;23.26;92.37;100559.31;5097113;28;20583;-73
2022/06/24 13:36:47;;;;;;;3.75;3.08;;;;;;;22.95;92.24;100559.94;5094190;28;20074;-73
2022/06/24 13:39:13;;;;;;;4.03;3.10;;;;;;;22.95;93.92;100559.13;5079183;28;20074;-74
2022/06/24 13:41:38;;;;;;;3.15;2.85;;;;;;;23.30;93.42;100542.03;5076024;28;20074;-74
2022/06/24 13:44:04;;;;;;;4.05;2.85;;;;;;;23.57;90.59;100541.19;5075884;28;20040;-73
2022/06/24 13:46:29;;;;;;;3.90;3.33;;;;;;;23.41;94.86;100542.59;5079199;28;20040;-73
2022/06/24 13:48:57;;;;;;;3.92;3.35;;;;;;;23.24;92.70;100536.97;5093880;28;20501;-73
2022/06/24 13:51:23;;;;;;;4.50;3.28;;;;;;;23.08;95.22;100548.22;5079176;28;20407;-72
2022/06/24 13:53:49;;;;;;;4.68;3.38;;;;;;;22.70;90.70;100549.50;5075695;28;20020;-74
2022/06/24 13:56:17;;;;;;;4.43;3.00;;;;;;;22.34;90.41;100544.72;5095470;28;20429;-71
2022/06/24 14:02:04;;;;;;;4.40;3.67;;;;;;;22.15;96.83;100525.69;5094035;28;20059;-73
2022/06/24 14:04:29;;;;;;;4.05;3.08;;;;;;;22.36;100.00;100517.97;5075514;28;20467;-73
2022/06/24 14:06:55;;;;;;;5.18;3.50;;;;;;;22.64;99.06;100521.53;5075339;28;20123;-73
2022/06/24 14:09:20;;;;;;;3.97;2.80;;;;;;;22.77;90.92;100519.91;5096633;28;20075;-74
2022/06/24 14:11:45;;;;;;;4.93;3.07;;;;;;;23.04;93.95;100528.13;5075528;28;20258;-73
2022/06/24 14:14:12;;;;;;;4.00;3.20;;;;;;;23.25;93.43;100517.56;5078476;28;20278;-74
2022/06/24 14:16:38;;;;;;;5.22;3.40;;;;;;;23.30;92.25;100522.91;5093509;28;20487;-74
2022/06/24 14:19:04;;;;;;;3.63;2.33;;;;;;;23.11;87.11;100525.78;5093835;28;20039;-74
2022/06/24 14:21:29;;;;;;;4.13;2.53;;;;;;;23.18;92.15;100512.53;5077997;28;20040;-74
2022/06/24 14:26:38;;;;;;;2.20;1.98;;;;;;;23.28;89.16;100518.88;5096719;28;20637;-74
2022/06/24 14:29:04;;;;;;;3.70;2.50;;;;;;;23.28;87.85;100516.97;5093148;28;20103;-74
2022/06/24 14:31:29;;;;;;;2.15;1.95;;;;;;;23.51;85.92;100523.28;5078230;28;20293;-74
2022/06/24 14:33:54;;;;;;;3.17;2.03;;;;;;;23.69;85.97;100521.50;5075118;28;20116;-75
2022/06/24 14:36:19;;;;;;;3.83;2.20;;;;;;;23.75;84.85;100532.03;5093156;28;20055;-73
2022/06/24 14:41:29;;;;;;;2.03;1.60;;;;;;;23.49;80.02;100553.59;5093387;28;20815;-74
2022/06/24 14:43:55;;;;;;;3.33;1.90;;;;;;;23.34;83.72;100540.28;5078488;28;20043;-74
2022/06/24 14:49:41;;;;;;;1.67;1.55;;;;;;;23.34;85.26;100543.00;5093202;28;20035;-74
2022/06/24 14:55:29;;;;;;;1.48;1.38;;;;;;;23.26;82.17;100523.84;5093037;28;20123;-74
2022/06/24 15:01:16;;;;;;;1.83;1.40;;;;;;;23.28;80.50;100527.06;5092895;28;20046;-72
2022/06/24 15:03:41;;;;;;;1.80;1.70;;;;;;;23.29;80.58;100524.03;5093130;28;20102;-74
2022/06/24 15:06:07;;;;;;;1.60;1.50;;;;;;;23.74;81.42;100514.03;5095972;28;20032;-73
2022/06/24 15:11:55;;;;;;;1.42;1.33;;;;;;;24.55;80.71;100496.66;5093050;28;20039;-74
2022/06/24 15:17:42;;;;;;;2.72;1.90;;;;;;;24.68;73.63;100471.13;5095311;28;20071;-75
2022/06/24 15:23:30;;;;;;;3.45;1.60;;;;;;;24.27;74.09;100485.88;5092592;28;20047;-74
2022/06/24 15:25:55;;;;;;;1.52;1.42;;;;;;;24.15;78.01;100484.88;5092494;28;20028;-74
2022/06/24 15:31:43;;;;;;;1.92;1.50;;;;;;;23.73;75.13;100485.09;5093038;28;20050;-75
2022/06/24 15:37:30;;;;;;;2.35;1.50;;;;;;;23.93;78.65;100472.03;5092391;28;20082;-75
2022/06/24 15:39:55;;;;;;;1.52;1.42;;;;;;;23.88;76.70;100477.63;5076200;28;20040;-73
2022/06/24 15:42:21;;;;;;;2.97;1.60;;;;;;;23.90;76.89;100478.13;5093150;28;20479;-74
2022/06/24 15:48:08;;;;;;;2.45;1.40;;;;;;;23.87;75.25;100470.56;5092532;28;20510;-75
2022/06/24 15:50:34;;;;;;;2.22;1.45;;;;;;;23.93;76.75;100461.13;5092078;28;20032;-73
2022/06/24 15:52:59;;;;;;;1.70;1.60;;;;;;;23.94;72.74;100455.34;5095169;28;20047;-75